createdAt,value
2018-05-07T00:00:05.184Z,42.75
2018-05-07T00:02:38.626Z,42.81
2018-05-07T00:05:12.962Z,42.70
2018-05-07T00:07:45.290Z,42.66
2018-05-07T00:10:17.568Z,42.55
2018-05-07T00:12:51.864Z,42.67
2018-05-07T00:15:25.809Z,42.67
2018-05-07T00:17:59.092Z,42.59
2018-05-07T00:20:31.400Z,42.81
2018-05-07T00:23:05.623Z,43.02
2018-05-07T00:25:38.193Z,43.25
2018-05-07T00:28:09.638Z,43.30
2018-05-07T00:30:42.773Z,43.29
2018-05-07T00:33:16.781Z,43.39
2018-05-07T00:35:49.129Z,43.47
2018-05-07T00:38:21.890Z,43.49
2018-05-07T00:40:53.371Z,43.63
2018-05-07T00:43:27.417Z,43.62
2018-05-07T00:46:00.907Z,43.61
2018-05-07T00:48:39.445Z,43.66
2018-05-07T00:51:13.886Z,43.89
2018-05-07T00:53:46.202Z,43.65
2018-05-07T00:56:23.921Z,43.57
2018-05-07T00:58:57.447Z,43.49
2018-05-07T01:01:28.595Z,43.58
2018-05-07T01:04:00.745Z,43.56
2018-05-07T01:06:33.853Z,43.46
2018-05-07T01:09:07.776Z,43.38
2018-05-07T01:11:39.985Z,43.30
2018-05-07T01:14:14.031Z,43.40
2018-05-07T01:16:46.108Z,43.45
2018-05-07T01:19:21.621Z,43.40
2018-05-07T01:21:54.720Z,43.20
2018-05-07T01:24:28.813Z,43.23
2018-05-07T01:27:00.571Z,43.17
2018-05-07T01:29:33.765Z,43.27
2018-05-07T01:32:06.270Z,43.23
2018-05-07T01:34:38.917Z,43.44
2018-05-07T01:37:12.162Z,43.40
2018-05-07T01:39:45.394Z,43.51
2018-05-07T01:42:23.407Z,43.38
2018-05-07T01:45:01.737Z,43.27
2018-05-07T01:47:37.161Z,43.37
2018-05-07T01:50:09.840Z,43.32
2018-05-07T01:52:43.837Z,43.69
2018-05-07T01:55:18.052Z,43.70
2018-05-07T01:57:51.916Z,43.65
2018-05-07T02:00:25.028Z,43.84
2018-05-07T02:02:57.590Z,43.76
2018-05-07T02:05:30.331Z,43.65
2018-05-07T02:08:04.635Z,43.71
2018-05-07T02:10:37.800Z,43.61
2018-05-07T02:13:11.007Z,43.80
2018-05-07T02:15:44.437Z,43.91
2018-05-07T02:18:15.855Z,43.95
2018-05-07T02:20:48.029Z,44.01
2018-05-07T02:23:21.159Z,43.99
2018-05-07T02:25:53.312Z,43.98
2018-05-07T02:28:26.868Z,43.99
2018-05-07T02:31:00.049Z,43.87
2018-05-07T02:33:33.175Z,43.93
2018-05-07T02:36:05.542Z,43.88
2018-05-07T02:38:38.707Z,43.90
2018-05-07T02:41:11.335Z,44.01
2018-05-07T02:43:44.567Z,44.41
2018-05-07T02:46:18.591Z,44.38
2018-05-07T02:48:52.942Z,44.32
2018-05-07T02:51:26.189Z,44.52
2018-05-07T02:53:59.427Z,44.50
2018-05-07T02:56:33.965Z,44.41
2018-05-07T02:59:05.607Z,44.41
2018-05-07T03:01:39.463Z,44.26
2018-05-07T03:04:14.136Z,44.16
2018-05-07T03:06:46.492Z,44.20
2018-05-07T03:09:19.750Z,44.14
2018-05-07T03:11:53.284Z,44.02
2018-05-07T03:14:27.812Z,44.09
2018-05-07T03:17:01.222Z,44.14
2018-05-07T03:19:35.197Z,44.60
2018-05-07T03:22:09.125Z,44.42
2018-05-07T03:24:41.492Z,44.38
2018-05-07T03:27:15.765Z,44.41
2018-05-07T03:29:50.791Z,44.51
2018-05-07T03:32:23.013Z,45.46
2018-05-07T03:34:56.223Z,45.14
2018-05-07T03:37:29.385Z,45.00
2018-05-07T03:40:03.450Z,45.05
2018-05-07T03:42:36.002Z,44.97
2018-05-07T03:45:10.165Z,44.69
2018-05-07T03:47:44.759Z,44.70
2018-05-07T03:50:18.203Z,44.98
2018-05-07T03:52:51.753Z,45.05
2018-05-07T03:55:24.871Z,45.00
2018-05-07T03:57:58.809Z,44.93
2018-05-07T04:00:31.986Z,45.00
2018-05-07T04:03:05.776Z,45.30
2018-05-07T04:05:39.213Z,45.20
2018-05-07T04:08:12.470Z,45.23
2018-05-07T04:10:44.920Z,45.27
2018-05-07T04:13:16.434Z,45.24
2018-05-07T04:15:47.972Z,45.32
2018-05-07T04:20:38.248Z,45.07
2018-05-07T04:24:20.523Z,45.33
2018-05-07T04:26:51.991Z,44.91
2018-05-07T04:29:26.835Z,44.62
2018-05-07T04:32:00.003Z,44.41
2018-05-07T04:34:32.159Z,44.15
2018-05-07T04:37:06.108Z,44.01
2018-05-07T04:39:38.377Z,43.60
2018-05-07T04:42:13.107Z,43.66
2018-05-07T04:44:46.300Z,43.33
2018-05-07T04:47:19.582Z,43.23
2018-05-07T04:49:53.555Z,43.35
2018-05-07T04:52:27.372Z,42.98
2018-05-07T04:55:01.717Z,42.94
2018-05-07T04:57:35.623Z,42.39
2018-05-07T05:00:07.989Z,42.12
2018-05-07T05:02:42.045Z,42.01
2018-05-07T05:05:18.142Z,42.14
2018-05-07T05:07:52.454Z,41.91
2018-05-07T05:10:26.402Z,41.49
2018-05-07T05:12:58.951Z,41.32
2018-05-07T05:15:31.127Z,41.11
2018-05-07T05:18:05.027Z,41.32
2018-05-07T05:20:38.137Z,40.98
2018-05-07T05:23:10.322Z,41.20
2018-05-07T05:25:43.526Z,41.21
2018-05-07T05:28:15.530Z,41.26
2018-05-07T05:30:48.814Z,40.94
2018-05-07T05:33:21.998Z,40.70
2018-05-07T05:35:54.301Z,40.49
2018-05-07T05:38:28.541Z,40.48
2018-05-07T05:41:00.972Z,39.94
2018-05-07T05:43:32.406Z,39.76
2018-05-07T05:46:06.169Z,39.96
2018-05-07T05:48:37.848Z,39.75
2018-05-07T05:51:09.110Z,39.98
2018-05-07T05:53:41.327Z,40.03
2018-05-07T05:56:13.901Z,39.70
2018-05-07T05:58:47.266Z,39.26
2018-05-07T06:01:21.209Z,39.53
2018-05-07T06:03:53.889Z,39.40
2018-05-07T06:06:28.280Z,39.30
2018-05-07T06:09:00.184Z,39.25
2018-05-07T06:11:33.530Z,38.92
2018-05-07T06:14:06.872Z,39.54
2018-05-07T06:16:39.131Z,39.77
2018-05-07T06:19:13.051Z,39.32
2018-05-07T06:21:45.582Z,39.52
2018-05-07T06:24:17.102Z,39.72
2018-05-07T06:26:49.498Z,39.34
2018-05-07T06:29:22.948Z,39.28
2018-05-07T06:31:57.274Z,39.12
2018-05-07T06:34:30.809Z,38.73
2018-05-07T06:37:02.467Z,38.78
2018-05-07T06:39:37.054Z,39.03
2018-05-07T06:42:08.340Z,38.80
2018-05-07T06:44:41.543Z,39.93
2018-05-07T06:47:15.817Z,38.88
2018-05-07T06:49:47.764Z,38.58
2018-05-07T06:52:22.733Z,38.67
2018-05-07T06:57:53.106Z,38.28
2018-05-07T07:00:27.352Z,38.73
2018-05-07T07:03:03.074Z,38.23
2018-05-07T07:05:35.990Z,38.57
2018-05-07T07:08:07.530Z,37.81
2018-05-07T07:10:41.442Z,37.34
2018-05-07T07:13:14.863Z,36.76
2018-05-07T07:15:48.794Z,36.54
2018-05-07T07:18:21.144Z,36.37
2018-05-07T07:20:53.423Z,36.17
2018-05-07T07:23:25.035Z,36.09
2018-05-07T07:26:00.063Z,35.83
2018-05-07T07:28:31.456Z,34.88
2018-05-07T07:31:05.107Z,34.41
2018-05-07T07:33:39.020Z,34.64
2018-05-07T07:36:11.895Z,33.98
2018-05-07T07:38:44.499Z,34.77
2018-05-07T07:41:17.810Z,35.21
2018-05-07T07:43:50.457Z,34.59
2018-05-07T07:46:21.964Z,35.79
2018-05-07T07:48:54.453Z,35.78
2018-05-07T07:51:30.127Z,35.77
2018-05-07T07:54:01.448Z,36.11
2018-05-07T07:56:34.470Z,34.71
2018-05-07T07:59:06.674Z,35.31
2018-05-07T08:01:39.737Z,35.22
2018-05-07T08:04:13.681Z,34.74
2018-05-07T08:06:47.074Z,34.50
2018-05-07T08:09:19.430Z,34.91
2018-05-07T08:14:23.160Z,35.45
2018-05-07T08:16:56.189Z,35.47
2018-05-07T08:19:29.227Z,33.88
2018-05-07T08:22:01.665Z,34.08
2018-05-07T08:24:33.153Z,34.17
2018-05-07T08:27:05.674Z,33.83
2018-05-07T08:29:38.589Z,33.11
2018-05-07T08:32:10.770Z,32.94
2018-05-07T08:34:44.087Z,32.71
2018-05-07T08:37:17.334Z,33.16
2018-05-07T08:39:49.619Z,32.54
2018-05-07T08:42:21.592Z,31.69
2018-05-07T08:44:53.453Z,31.41
2018-05-07T08:47:24.979Z,30.85
2018-05-07T08:50:00.406Z,30.98
2018-05-07T08:52:37.153Z,31.17
2018-05-07T08:55:08.704Z,31.04
2018-05-07T08:57:42.598Z,31.77
2018-05-07T09:00:18.596Z,29.72
2018-05-07T09:02:49.917Z,30.15
2018-05-07T09:05:22.191Z,29.92
2018-05-07T09:07:55.141Z,28.76
2018-05-07T09:10:26.888Z,27.48
2018-05-07T09:13:04.090Z,27.05
2018-05-07T09:15:37.246Z,26.36
2018-05-07T09:18:12.124Z,26.14
2018-05-07T09:20:47.022Z,26.36
2018-05-07T09:23:19.631Z,26.79
2018-05-07T09:25:53.300Z,26.62
2018-05-07T09:28:26.848Z,25.81
2018-05-07T09:31:00.168Z,26.84
2018-05-07T09:33:35.952Z,26.34
2018-05-07T09:36:10.181Z,25.25
2018-05-07T09:38:44.653Z,24.94
2018-05-07T09:41:18.919Z,24.66
2018-05-07T09:43:51.265Z,24.56
2018-05-07T09:46:24.516Z,25.62
2018-05-07T09:48:58.965Z,25.14
2018-05-07T09:51:33.974Z,24.87
2018-05-07T09:54:14.236Z,24.54
2018-05-07T09:56:55.273Z,24.10
2018-05-07T09:59:30.571Z,24.70
2018-05-07T10:02:03.513Z,25.25
2018-05-07T10:04:40.033Z,24.76
2018-05-07T20:33:23.570Z,44.04
2018-05-07T20:35:57.919Z,40.01
2018-05-07T20:38:34.161Z,36.89
2018-05-07T20:41:07.579Z,34.31
2018-05-07T20:43:43.205Z,32.61
2018-05-07T20:46:15.625Z,31.50
2018-05-07T20:48:48.926Z,30.59
2018-05-07T20:51:22.148Z,29.89
2018-05-07T20:53:57.503Z,29.50
2018-05-07T20:56:30.153Z,28.92
2018-05-07T20:59:03.332Z,28.48
2018-05-07T21:01:35.119Z,28.22
2018-05-07T21:04:08.035Z,27.98
2018-05-07T21:06:40.701Z,27.83
2018-05-07T21:09:12.035Z,27.64
2018-05-07T21:11:44.493Z,27.51
2018-05-07T21:14:17.943Z,27.36
2018-05-07T21:16:50.442Z,27.31
2018-05-07T21:19:23.938Z,27.17
2018-05-07T21:21:55.477Z,27.12
2018-05-07T21:24:28.519Z,27.04
2018-05-07T21:26:59.938Z,27.05
2018-05-07T21:29:31.579Z,27.15
2018-05-07T21:32:03.953Z,27.12
2018-05-07T21:34:35.352Z,27.04
2018-05-07T21:37:07.827Z,27.02
2018-05-07T21:39:39.481Z,26.99
2018-05-07T21:42:10.947Z,27.00
2018-05-07T21:44:42.283Z,26.99
2018-05-07T21:47:15.549Z,27.05
2018-05-07T21:49:47.715Z,27.10
2018-05-07T21:52:19.908Z,27.17
2018-05-07T21:54:51.326Z,27.16
2018-05-07T21:57:24.166Z,27.22
2018-05-07T21:59:55.627Z,27.32
2018-05-07T22:02:27.982Z,27.38
2018-05-07T22:05:00.336Z,27.34
2018-05-07T22:07:31.775Z,27.36
2018-05-07T22:10:03.731Z,27.43
2018-05-07T22:12:35.044Z,27.53
2018-05-07T22:15:07.300Z,27.53
2018-05-07T22:17:38.608Z,27.43
2018-05-07T22:20:10.845Z,27.39
2018-05-07T22:22:44.739Z,27.36
2018-05-07T22:25:18.759Z,27.41
2018-05-07T22:27:51.099Z,27.46
2018-05-07T22:30:23.726Z,27.51
2018-05-07T22:32:55.064Z,27.57
2018-05-07T22:35:26.375Z,27.57
2018-05-07T22:37:59.046Z,27.60
2018-05-07T22:40:30.562Z,27.51
2018-05-07T22:43:02.686Z,27.60
2018-05-07T22:45:33.998Z,27.60
2018-05-07T22:48:05.735Z,27.64
2018-05-07T22:50:38.046Z,27.62
2018-05-07T22:53:10.272Z,27.58
2018-05-07T22:55:41.726Z,27.55
2018-05-07T22:58:13.850Z,27.54
2018-05-07T23:00:45.586Z,27.48
2018-05-07T23:03:17.352Z,27.49
2018-05-07T23:05:50.215Z,27.47
2018-05-07T23:08:22.662Z,27.44
2018-05-07T23:10:54.906Z,27.42
2018-05-07T23:13:26.224Z,27.37
2018-05-07T23:15:57.591Z,27.44
2018-05-07T23:18:29.332Z,27.44
2018-05-07T23:21:02.625Z,27.42
2018-05-07T23:23:34.658Z,27.41
2018-05-07T23:26:06.082Z,27.36
2018-05-07T23:28:38.315Z,27.31
2018-05-07T23:31:10.580Z,27.35
2018-05-07T23:33:42.061Z,27.48
2018-05-07T23:36:15.716Z,27.56
2018-05-07T23:38:48.196Z,27.54
2018-05-07T23:41:20.468Z,27.64
2018-05-07T23:43:53.156Z,27.67
2018-05-07T23:46:25.739Z,27.66
2018-05-07T23:48:58.015Z,27.62
2018-05-07T23:51:30.466Z,27.60
2018-05-07T23:54:02.959Z,27.65
2018-05-07T23:56:35.316Z,27.73
2018-05-07T23:59:07.015Z,27.70
